sensor_id;sensor_type;location;lat;lon;timestamp;temperature;humidity
65637;DHT22;52327;42.622;23.316;2022-08-19T00:00:20;21.62;56.60
65637;DHT22;52327;42.622;23.316;2022-08-19T00:02:46;21.67;56.58
65637;DHT22;52327;42.622;23.316;2022-08-19T00:05:13;21.66;56.35
65637;DHT22;52327;42.622;23.316;2022-08-19T00:07:39;21.77;56.45
65637;DHT22;52327;42.622;23.316;2022-08-19T00:10:06;21.77;56.16
65637;DHT22;52327;42.622;23.316;2022-08-19T00:12:32;21.74;56.40
65637;DHT22;52327;42.622;23.316;2022-08-19T00:14:58;21.60;56.33
65637;DHT22;52327;42.622;23.316;2022-08-19T00:17:23;21.56;56.39
65637;DHT22;52327;42.622;23.316;2022-08-19T00:19:49;21.55;56.61
65637;DHT22;52327;42.622;23.316;2022-08-19T00:22:14;21.42;57.16
65637;DHT22;52327;42.622;23.316;2022-08-19T00:24:43;21.31;57.49
65637;DHT22;52327;42.622;23.316;2022-08-19T00:27:09;21.32;57.64
65637;DHT22;52327;42.622;23.316;2022-08-19T00:29:34;21.35;57.73
65637;DHT22;52327;42.622;23.316;2022-08-19T00:32:00;21.28;57.78
65637;DHT22;52327;42.622;23.316;2022-08-19T00:34:26;21.32;58.06
65637;DHT22;52327;42.622;23.316;2022-08-19T00:36:56;21.38;57.34
65637;DHT22;52327;42.622;23.316;2022-08-19T00:39:22;21.41;56.95
65637;DHT22;52327;42.622;23.316;2022-08-19T00:41:50;21.31;57.12
65637;DHT22;52327;42.622;23.316;2022-08-19T00:44:22;21.29;57.67
65637;DHT22;52327;42.622;23.316;2022-08-19T00:46:51;21.28;58.12
65637;DHT22;52327;42.622;23.316;2022-08-19T00:51:52;21.36;57.58
65637;DHT22;52327;42.622;23.316;2022-08-19T00:54:19;21.29;57.23
65637;DHT22;52327;42.622;23.316;2022-08-19T00:56:46;21.21;57.73
65637;DHT22;52327;42.622;23.316;2022-08-19T00:59:14;21.18;57.57
65637;DHT22;52327;42.622;23.316;2022-08-19T01:01:42;21.12;57.46
65637;DHT22;52327;42.622;23.316;2022-08-19T01:04:07;21.08;57.35
65637;DHT22;52327;42.622;23.316;2022-08-19T01:06:34;21.24;57.67
65637;DHT22;52327;42.622;23.316;2022-08-19T01:09:00;21.22;58.08
65637;DHT22;52327;42.622;23.316;2022-08-19T01:11:27;21.18;57.21
65637;DHT22;52327;42.622;23.316;2022-08-19T01:13:53;21.19;57.96
65637;DHT22;52327;42.622;23.316;2022-08-19T01:16:21;21.09;57.65
65637;DHT22;52327;42.622;23.316;2022-08-19T01:18:47;21.12;57.37
65637;DHT22;52327;42.622;23.316;2022-08-19T01:21:36;21.15;56.97
65637;DHT22;52327;42.622;23.316;2022-08-19T01:24:03;21.24;57.14
65637;DHT22;52327;42.622;23.316;2022-08-19T01:26:29;21.15;57.17
65637;DHT22;52327;42.622;23.316;2022-08-19T01:28:56;21.24;57.09
65637;DHT22;52327;42.622;23.316;2022-08-19T01:31:25;21.15;56.76
65637;DHT22;52327;42.622;23.316;2022-08-19T01:33:52;21.15;56.65
65637;DHT22;52327;42.622;23.316;2022-08-19T01:36:33;21.16;57.04
65637;DHT22;52327;42.622;23.316;2022-08-19T01:39:01;21.18;56.45
65637;DHT22;52327;42.622;23.316;2022-08-19T01:41:27;21.24;57.20
65637;DHT22;52327;42.622;23.316;2022-08-19T01:43:53;21.18;58.22
65637;DHT22;52327;42.622;23.316;2022-08-19T01:46:19;21.16;59.05
65637;DHT22;52327;42.622;23.316;2022-08-19T01:48:45;21.05;58.43
65637;DHT22;52327;42.622;23.316;2022-08-19T01:51:12;20.91;60.05
65637;DHT22;52327;42.622;23.316;2022-08-19T01:53:38;20.75;60.82
65637;DHT22;52327;42.622;23.316;2022-08-19T01:56:04;20.70;60.57
65637;DHT22;52327;42.622;23.316;2022-08-19T01:58:34;20.63;59.79
65637;DHT22;52327;42.622;23.316;2022-08-19T02:01:03;20.55;60.46
65637;DHT22;52327;42.622;23.316;2022-08-19T02:03:28;20.67;61.26
65637;DHT22;52327;42.622;23.316;2022-08-19T02:05:59;20.50;62.11
65637;DHT22;52327;42.622;23.316;2022-08-19T02:08:26;20.50;61.38
65637;DHT22;52327;42.622;23.316;2022-08-19T02:10:52;20.44;61.34
65637;DHT22;52327;42.622;23.316;2022-08-19T02:13:18;20.36;61.51
65637;DHT22;52327;42.622;23.316;2022-08-19T02:15:43;20.37;61.41
65637;DHT22;52327;42.622;23.316;2022-08-19T02:18:09;20.40;61.03
65637;DHT22;52327;42.622;23.316;2022-08-19T02:20:35;20.43;60.85
65637;DHT22;52327;42.622;23.316;2022-08-19T02:23:01;20.39;61.05
65637;DHT22;52327;42.622;23.316;2022-08-19T02:25:27;20.45;61.01
65637;DHT22;52327;42.622;23.316;2022-08-19T02:27:52;20.40;60.87
65637;DHT22;52327;42.622;23.316;2022-08-19T02:30:19;20.34;60.76
65637;DHT22;52327;42.622;23.316;2022-08-19T02:32:44;20.45;61.06
65637;DHT22;52327;42.622;23.316;2022-08-19T02:35:11;20.50;60.59
65637;DHT22;52327;42.622;23.316;2022-08-19T02:37:37;20.58;60.48
65637;DHT22;52327;42.622;23.316;2022-08-19T02:40:21;20.65;59.71
65637;DHT22;52327;42.622;23.316;2022-08-19T02:42:46;20.63;59.30
65637;DHT22;52327;42.622;23.316;2022-08-19T02:45:13;20.67;60.20
65637;DHT22;52327;42.622;23.316;2022-08-19T02:47:39;20.82;60.34
65637;DHT22;52327;42.622;23.316;2022-08-19T02:50:05;20.87;59.82
65637;DHT22;52327;42.622;23.316;2022-08-19T02:52:32;20.78;60.45
65637;DHT22;52327;42.622;23.316;2022-08-19T02:54:58;20.73;61.79
65637;DHT22;52327;42.622;23.316;2022-08-19T02:57:25;20.60;60.93
65637;DHT22;52327;42.622;23.316;2022-08-19T02:59:51;20.50;61.11
65637;DHT22;52327;42.622;23.316;2022-08-19T03:02:17;20.50;62.41
65637;DHT22;52327;42.622;23.316;2022-08-19T03:04:42;20.29;61.47
65637;DHT22;52327;42.622;23.316;2022-08-19T03:07:09;20.29;62.28
65637;DHT22;52327;42.622;23.316;2022-08-19T03:09:37;20.30;61.59
65637;DHT22;52327;42.622;23.316;2022-08-19T03:12:03;20.30;62.82
65637;DHT22;52327;42.622;23.316;2022-08-19T03:14:31;20.27;62.19
65637;DHT22;52327;42.622;23.316;2022-08-19T03:17:04;20.06;63.26
65637;DHT22;52327;42.622;23.316;2022-08-19T03:19:30;20.12;63.83
65637;DHT22;52327;42.622;23.316;2022-08-19T03:21:56;19.99;63.59
65637;DHT22;52327;42.622;23.316;2022-08-19T03:24:23;19.94;62.19
65637;DHT22;52327;42.622;23.316;2022-08-19T03:26:51;19.76;63.57
65637;DHT22;52327;42.622;23.316;2022-08-19T03:29:18;19.58;63.83
65637;DHT22;52327;42.622;23.316;2022-08-19T03:31:44;19.44;64.13
65637;DHT22;52327;42.622;23.316;2022-08-19T03:34:11;19.39;63.38
65637;DHT22;52327;42.622;23.316;2022-08-19T03:36:37;19.52;63.34
65637;DHT22;52327;42.622;23.316;2022-08-19T03:39:04;19.55;63.43
65637;DHT22;52327;42.622;23.316;2022-08-19T03:41:32;19.58;63.22
65637;DHT22;52327;42.622;23.316;2022-08-19T03:43:58;19.68;62.62
65637;DHT22;52327;42.622;23.316;2022-08-19T03:46:27;19.76;63.45
65637;DHT22;52327;42.622;23.316;2022-08-19T03:48:56;19.94;61.79
65637;DHT22;52327;42.622;23.316;2022-08-19T03:51:28;19.97;62.34
65637;DHT22;52327;42.622;23.316;2022-08-19T03:53:54;19.97;62.63
65637;DHT22;52327;42.622;23.316;2022-08-19T03:56:23;19.99;63.28
65637;DHT22;52327;42.622;23.316;2022-08-19T03:58:51;19.89;62.75
65637;DHT22;52327;42.622;23.316;2022-08-19T04:01:21;20.05;63.16
65637;DHT22;52327;42.622;23.316;2022-08-19T04:03:47;19.93;63.18
65637;DHT22;52327;42.622;23.316;2022-08-19T04:06:23;19.66;64.30
65637;DHT22;52327;42.622;23.316;2022-08-19T04:08:50;19.57;64.51
65637;DHT22;52327;42.622;23.316;2022-08-19T04:11:23;19.79;64.08
65637;DHT22;52327;42.622;23.316;2022-08-19T04:13:50;19.90;64.43
65637;DHT22;52327;42.622;23.316;2022-08-19T04:16:17;19.99;65.11
65637;DHT22;52327;42.622;23.316;2022-08-19T04:18:43;20.10;65.29
65637;DHT22;52327;42.622;23.316;2022-08-19T04:21:19;20.36;64.33
65637;DHT22;52327;42.622;23.316;2022-08-19T04:23:46;20.40;64.58
65637;DHT22;52327;42.622;23.316;2022-08-19T04:26:16;20.44;63.73
65637;DHT22;52327;42.622;23.316;2022-08-19T04:28:43;20.50;64.59
65637;DHT22;52327;42.622;23.316;2022-08-19T04:31:13;20.58;64.56
65637;DHT22;52327;42.622;23.316;2022-08-19T04:33:40;20.63;64.39
65637;DHT22;52327;42.622;23.316;2022-08-19T04:36:05;20.91;64.35
65637;DHT22;52327;42.622;23.316;2022-08-19T04:38:31;20.94;64.42
65637;DHT22;52327;42.622;23.316;2022-08-19T04:40:56;20.99;64.28
65637;DHT22;52327;42.622;23.316;2022-08-19T04:43:41;20.96;63.35
65637;DHT22;52327;42.622;23.316;2022-08-19T04:46:11;20.99;63.05
65637;DHT22;52327;42.622;23.316;2022-08-19T04:48:38;21.01;62.26
65637;DHT22;52327;42.622;23.316;2022-08-19T04:51:07;21.14;62.94
65637;DHT22;52327;42.622;23.316;2022-08-19T04:53:34;21.19;62.84
65637;DHT22;52327;42.622;23.316;2022-08-19T04:56:05;21.29;62.69
65637;DHT22;52327;42.622;23.316;2022-08-19T04:58:32;21.36;62.08
65637;DHT22;52327;42.622;23.316;2022-08-19T05:00:58;21.45;61.65
65637;DHT22;52327;42.622;23.316;2022-08-19T05:03:25;21.50;61.84
65637;DHT22;52327;42.622;23.316;2022-08-19T05:05:51;21.60;61.61
65637;DHT22;52327;42.622;23.316;2022-08-19T05:08:18;21.74;61.00
65637;DHT22;52327;42.622;23.316;2022-08-19T05:10:49;21.87;60.77
65637;DHT22;52327;42.622;23.316;2022-08-19T05:13:15;21.82;59.76
65637;DHT22;52327;42.622;23.316;2022-08-19T05:15:41;21.89;59.28
65637;DHT22;52327;42.622;23.316;2022-08-19T05:18:07;22.00;59.24
65637;DHT22;52327;42.622;23.316;2022-08-19T05:20:51;22.04;59.35
65637;DHT22;52327;42.622;23.316;2022-08-19T05:23:35;22.17;58.79
65637;DHT22;52327;42.622;23.316;2022-08-19T05:26:00;22.31;57.74
65637;DHT22;52327;42.622;23.316;2022-08-19T05:28:26;22.34;58.09
65637;DHT22;52327;42.622;23.316;2022-08-19T05:30:52;22.52;57.41
65637;DHT22;52327;42.622;23.316;2022-08-19T05:33:20;22.56;57.45
65637;DHT22;52327;42.622;23.316;2022-08-19T05:35:47;22.51;58.45
65637;DHT22;52327;42.622;23.316;2022-08-19T05:38:13;22.59;59.09
65637;DHT22;52327;42.622;23.316;2022-08-19T05:40:39;22.56;58.84
65637;DHT22;52327;42.622;23.316;2022-08-19T05:43:06;22.66;59.11
65637;DHT22;52327;42.622;23.316;2022-08-19T05:45:32;22.71;59.02
65637;DHT22;52327;42.622;23.316;2022-08-19T05:47:57;22.79;56.92
65637;DHT22;52327;42.622;23.316;2022-08-19T05:50:24;22.85;56.85
65637;DHT22;52327;42.622;23.316;2022-08-19T05:52:57;22.81;57.10
65637;DHT22;52327;42.622;23.316;2022-08-19T05:55:22;22.95;57.32
65637;DHT22;52327;42.622;23.316;2022-08-19T05:57:48;23.07;57.40
65637;DHT22;52327;42.622;23.316;2022-08-19T06:00:14;23.23;56.95
65637;DHT22;52327;42.622;23.316;2022-08-19T06:02:40;23.29;56.76
65637;DHT22;52327;42.622;23.316;2022-08-19T06:05:06;23.09;57.14
65637;DHT22;52327;42.622;23.316;2022-08-19T06:07:35;23.24;57.48
65637;DHT22;52327;42.622;23.316;2022-08-19T06:10:01;23.46;56.52
65637;DHT22;52327;42.622;23.316;2022-08-19T06:12:31;23.54;56.67
65637;DHT22;52327;42.622;23.316;2022-08-19T06:15:08;23.60;56.53
65637;DHT22;52327;42.622;23.316;2022-08-19T06:17:33;23.61;56.25
65637;DHT22;52327;42.622;23.316;2022-08-19T06:20:00;23.73;56.57
65637;DHT22;52327;42.622;23.316;2022-08-19T06:22:27;23.84;56.72
65637;DHT22;52327;42.622;23.316;2022-08-19T06:24:52;23.84;55.29
65637;DHT22;52327;42.622;23.316;2022-08-19T06:27:19;24.01;55.46
65637;DHT22;52327;42.622;23.316;2022-08-19T06:29:45;24.11;55.01
65637;DHT22;52327;42.622;23.316;2022-08-19T06:32:14;24.19;55.13
65637;DHT22;52327;42.622;23.316;2022-08-19T06:34:41;24.26;54.65
65637;DHT22;52327;42.622;23.316;2022-08-19T06:37:07;24.15;54.54
65637;DHT22;52327;42.622;23.316;2022-08-19T06:39:35;24.17;55.29
65637;DHT22;52327;42.622;23.316;2022-08-19T06:42:03;24.39;54.89
65637;DHT22;52327;42.622;23.316;2022-08-19T06:44:33;24.40;53.03
65637;DHT22;52327;42.622;23.316;2022-08-19T06:47:04;24.48;54.37
65637;DHT22;52327;42.622;23.316;2022-08-19T06:49:30;24.63;54.38
65637;DHT22;52327;42.622;23.316;2022-08-19T06:51:59;24.66;54.37
65637;DHT22;52327;42.622;23.316;2022-08-19T06:54:27;24.80;54.52
65637;DHT22;52327;42.622;23.316;2022-08-19T06:56:55;24.86;54.14
65637;DHT22;52327;42.622;23.316;2022-08-19T06:59:23;24.84;54.16
65637;DHT22;52327;42.622;23.316;2022-08-19T07:01:53;25.02;53.51
65637;DHT22;52327;42.622;23.316;2022-08-19T07:04:21;25.06;53.07
65637;DHT22;52327;42.622;23.316;2022-08-19T07:06:48;25.07;52.31
65637;DHT22;52327;42.622;23.316;2022-08-19T07:09:16;24.70;53.06
65637;DHT22;52327;42.622;23.316;2022-08-19T07:11:50;24.58;53.35
65637;DHT22;52327;42.622;23.316;2022-08-19T07:14:19;24.47;54.22
65637;DHT22;52327;42.622;23.316;2022-08-19T07:16:48;24.51;54.41
65637;DHT22;52327;42.622;23.316;2022-08-19T07:19:14;24.76;54.03
65637;DHT22;52327;42.622;23.316;2022-08-19T07:21:40;25.06;52.81
65637;DHT22;52327;42.622;23.316;2022-08-19T07:24:07;25.10;52.33
65637;DHT22;52327;42.622;23.316;2022-08-19T07:26:38;25.26;52.49
65637;DHT22;52327;42.622;23.316;2022-08-19T07:29:05;25.33;51.79
65637;DHT22;52327;42.622;23.316;2022-08-19T07:31:30;25.34;50.62
65637;DHT22;52327;42.622;23.316;2022-08-19T07:33:57;25.40;51.01
65637;DHT22;52327;42.622;23.316;2022-08-19T07:36:27;25.52;51.80
65637;DHT22;52327;42.622;23.316;2022-08-19T07:38:59;25.57;50.21
65637;DHT22;52327;42.622;23.316;2022-08-19T07:41:26;25.70;50.95
65637;DHT22;52327;42.622;23.316;2022-08-19T07:43:52;25.65;50.99
65637;DHT22;52327;42.622;23.316;2022-08-19T07:46:18;25.72;51.49
65637;DHT22;52327;42.622;23.316;2022-08-19T07:48:46;25.95;51.68
65637;DHT22;52327;42.622;23.316;2022-08-19T07:51:15;26.18;50.58
65637;DHT22;52327;42.622;23.316;2022-08-19T07:53:41;26.37;48.94
65637;DHT22;52327;42.622;23.316;2022-08-19T07:56:08;26.11;48.87
65637;DHT22;52327;42.622;23.316;2022-08-19T07:58:37;26.12;49.89
65637;DHT22;52327;42.622;23.316;2022-08-19T08:01:04;26.25;48.95
65637;DHT22;52327;42.622;23.316;2022-08-19T08:03:31;26.44;48.69
65637;DHT22;52327;42.622;23.316;2022-08-19T08:06:15;26.49;49.50
65637;DHT22;52327;42.622;23.316;2022-08-19T08:09:00;26.67;48.04
65637;DHT22;52327;42.622;23.316;2022-08-19T08:11:39;26.57;46.85
65637;DHT22;52327;42.622;23.316;2022-08-19T08:14:05;26.49;47.96
65637;DHT22;52327;42.622;23.316;2022-08-19T08:16:37;26.49;46.91
65637;DHT22;52327;42.622;23.316;2022-08-19T08:19:06;26.44;46.87
65637;DHT22;52327;42.622;23.316;2022-08-19T08:21:33;26.67;45.87
65637;DHT22;52327;42.622;23.316;2022-08-19T08:23:58;26.81;45.89
65637;DHT22;52327;42.622;23.316;2022-08-19T08:26:24;27.01;43.19
65637;DHT22;52327;42.622;23.316;2022-08-19T08:28:53;27.16;42.58
65637;DHT22;52327;42.622;23.316;2022-08-19T08:31:19;27.18;43.83
65637;DHT22;52327;42.622;23.316;2022-08-19T08:33:46;27.46;43.60
65637;DHT22;52327;42.622;23.316;2022-08-19T08:36:12;27.62;42.77
65637;DHT22;52327;42.622;23.316;2022-08-19T08:38:40;27.79;42.35
65637;DHT22;52327;42.622;23.316;2022-08-19T08:43:40;27.78;40.55
65637;DHT22;52327;42.622;23.316;2022-08-19T08:46:13;27.85;41.60
65637;DHT22;52327;42.622;23.316;2022-08-19T08:51:44;27.69;40.80
65637;DHT22;52327;42.622;23.316;2022-08-19T08:54:15;27.96;40.10
65637;DHT22;52327;42.622;23.316;2022-08-19T08:56:44;28.00;40.00
65637;DHT22;52327;42.622;23.316;2022-08-19T08:59:24;28.00;40.01
65637;DHT22;52327;42.622;23.316;2022-08-19T09:01:51;28.30;38.89
65637;DHT22;52327;42.622;23.316;2022-08-19T09:04:17;28.60;38.27
65637;DHT22;52327;42.622;23.316;2022-08-19T09:06:52;28.51;38.49
65637;DHT22;52327;42.622;23.316;2022-08-19T09:09:34;28.37;38.89
65637;DHT22;52327;42.622;23.316;2022-08-19T09:12:38;28.61;37.79
65637;DHT22;52327;42.622;23.316;2022-08-19T09:15:09;28.64;37.43
65637;DHT22;52327;42.622;23.316;2022-08-19T09:17:36;28.71;37.92
65637;DHT22;52327;42.622;23.316;2022-08-19T09:22:40;28.47;37.58
65637;DHT22;52327;42.622;23.316;2022-08-19T09:25:08;28.60;37.44
65637;DHT22;52327;42.622;23.316;2022-08-19T09:27:36;28.68;38.26
65637;DHT22;52327;42.622;23.316;2022-08-19T09:30:03;28.92;37.26
65637;DHT22;52327;42.622;23.316;2022-08-19T09:32:29;28.94;37.23
65637;DHT22;52327;42.622;23.316;2022-08-19T09:34:55;28.92;36.40
65637;DHT22;52327;42.622;23.316;2022-08-19T09:37:23;29.14;36.82
65637;DHT22;52327;42.622;23.316;2022-08-19T09:39:49;29.02;35.35
65637;DHT22;52327;42.622;23.316;2022-08-19T09:42:14;28.82;36.17
65637;DHT22;52327;42.622;23.316;2022-08-19T09:44:41;28.88;36.00
65637;DHT22;52327;42.622;23.316;2022-08-19T09:47:08;29.02;35.38
65637;DHT22;52327;42.622;23.316;2022-08-19T09:49:34;29.36;35.31
65637;DHT22;52327;42.622;23.316;2022-08-19T09:52:00;29.55;34.77
65637;DHT22;52327;42.622;23.316;2022-08-19T09:54:26;29.59;34.37
65637;DHT22;52327;42.622;23.316;2022-08-19T09:56:53;29.97;33.21
65637;DHT22;52327;42.622;23.316;2022-08-19T09:59:19;30.01;33.89
65637;DHT22;52327;42.622;23.316;2022-08-19T10:01:44;30.11;32.42
65637;DHT22;52327;42.622;23.316;2022-08-19T10:04:10;30.00;32.43
65637;DHT22;52327;42.622;23.316;2022-08-19T10:06:37;29.80;33.05
65637;DHT22;52327;42.622;23.316;2022-08-19T10:09:04;29.81;32.79
65637;DHT22;52327;42.622;23.316;2022-08-19T10:11:32;29.91;32.08
65637;DHT22;52327;42.622;23.316;2022-08-19T10:13:57;29.80;32.43
65637;DHT22;52327;42.622;23.316;2022-08-19T10:16:23;29.90;33.23
65637;DHT22;52327;42.622;23.316;2022-08-19T10:18:50;30.07;32.28
65637;DHT22;52327;42.622;23.316;2022-08-19T10:21:22;30.31;32.74
65637;DHT22;52327;42.622;23.316;2022-08-19T10:23:51;30.49;32.62
65637;DHT22;52327;42.622;23.316;2022-08-19T10:26:19;30.52;31.68
65637;DHT22;52327;42.622;23.316;2022-08-19T10:28:45;30.51;31.47
65637;DHT22;52327;42.622;23.316;2022-08-19T10:31:15;30.64;31.39
65637;DHT22;52327;42.622;23.316;2022-08-19T10:33:41;30.62;31.51
65637;DHT22;52327;42.622;23.316;2022-08-19T10:36:12;30.90;30.58
65637;DHT22;52327;42.622;23.316;2022-08-19T10:38:40;30.89;31.95
65637;DHT22;52327;42.622;23.316;2022-08-19T10:41:30;30.98;31.29
65637;DHT22;52327;42.622;23.316;2022-08-19T10:43:57;30.96;30.63
65637;DHT22;52327;42.622;23.316;2022-08-19T10:46:24;30.58;31.51
65637;DHT22;52327;42.622;23.316;2022-08-19T10:48:50;30.75;30.65
65637;DHT22;52327;42.622;23.316;2022-08-19T10:51:16;30.88;30.73
65637;DHT22;52327;42.622;23.316;2022-08-19T10:54:00;30.95;29.42
65637;DHT22;52327;42.622;23.316;2022-08-19T10:56:27;31.00;29.39
65637;DHT22;52327;42.622;23.316;2022-08-19T10:59:11;31.10;29.59
65637;DHT22;52327;42.622;23.316;2022-08-19T11:01:39;31.10;30.19
65637;DHT22;52327;42.622;23.316;2022-08-19T11:04:05;30.75;29.30
65637;DHT22;52327;42.622;23.316;2022-08-19T11:06:33;30.37;30.89
65637;DHT22;52327;42.622;23.316;2022-08-19T11:08:59;30.20;30.15
65637;DHT22;52327;42.622;23.316;2022-08-19T11:11:25;30.32;30.33
65637;DHT22;52327;42.622;23.316;2022-08-19T11:13:51;30.38;30.23
65637;DHT22;52327;42.622;23.316;2022-08-19T11:16:19;30.38;29.81
65637;DHT22;52327;42.622;23.316;2022-08-19T11:18:48;30.71;31.12
65637;DHT22;52327;42.622;23.316;2022-08-19T11:21:32;31.08;31.45
65637;DHT22;52327;42.622;23.316;2022-08-19T11:24:00;31.04;29.66
65637;DHT22;52327;42.622;23.316;2022-08-19T11:26:27;31.16;29.67
65637;DHT22;52327;42.622;23.316;2022-08-19T11:28:53;30.82;30.32
65637;DHT22;52327;42.622;23.316;2022-08-19T11:31:21;31.26;30.65
65637;DHT22;52327;42.622;23.316;2022-08-19T11:33:47;31.60;30.10
65637;DHT22;52327;42.622;23.316;2022-08-19T11:36:16;31.59;29.44
65637;DHT22;52327;42.622;23.316;2022-08-19T11:38:42;31.66;29.75
65637;DHT22;52327;42.622;23.316;2022-08-19T11:41:08;31.73;29.93
65637;DHT22;52327;42.622;23.316;2022-08-19T11:43:34;31.67;30.14
65637;DHT22;52327;42.622;23.316;2022-08-19T11:46:05;31.31;30.70
65637;DHT22;52327;42.622;23.316;2022-08-19T11:48:32;31.37;30.31
65637;DHT22;52327;42.622;23.316;2022-08-19T11:50:58;31.27;30.53
65637;DHT22;52327;42.622;23.316;2022-08-19T11:53:24;31.94;30.78
65637;DHT22;52327;42.622;23.316;2022-08-19T11:55:50;32.48;30.36
65637;DHT22;52327;42.622;23.316;2022-08-19T11:58:18;32.63;28.81
65637;DHT22;52327;42.622;23.316;2022-08-19T12:00:44;34.69;27.42
65637;DHT22;52327;42.622;23.316;2022-08-19T12:03:11;37.21;24.11
65637;DHT22;52327;42.622;23.316;2022-08-19T12:05:38;39.04;21.34
65637;DHT22;52327;42.622;23.316;2022-08-19T12:08:05;38.94;21.55
65637;DHT22;52327;42.622;23.316;2022-08-19T12:10:31;40.71;20.63
65637;DHT22;52327;42.622;23.316;2022-08-19T12:12:57;41.85;18.96
65637;DHT22;52327;42.622;23.316;2022-08-19T12:15:22;41.24;19.15
65637;DHT22;52327;42.622;23.316;2022-08-19T12:17:48;41.64;19.17
65637;DHT22;52327;42.622;23.316;2022-08-19T12:20:14;43.32;18.08
65637;DHT22;52327;42.622;23.316;2022-08-19T12:22:41;43.02;17.49
65637;DHT22;52327;42.622;23.316;2022-08-19T12:25:08;43.73;17.66
65637;DHT22;52327;42.622;23.316;2022-08-19T12:27:34;44.98;16.80
65637;DHT22;52327;42.622;23.316;2022-08-19T12:30:02;44.35;16.84
65637;DHT22;52327;42.622;23.316;2022-08-19T12:32:28;44.18;17.07
65637;DHT22;52327;42.622;23.316;2022-08-19T12:34:53;45.63;16.01
65637;DHT22;52327;42.622;23.316;2022-08-19T12:37:20;46.67;15.89
65637;DHT22;52327;42.622;23.316;2022-08-19T12:39:45;47.33;14.59
65637;DHT22;52327;42.622;23.316;2022-08-19T12:42:12;47.60;14.81
65637;DHT22;52327;42.622;23.316;2022-08-19T12:44:40;48.01;15.64
65637;DHT22;52327;42.622;23.316;2022-08-19T12:47:06;47.65;15.11
65637;DHT22;52327;42.622;23.316;2022-08-19T12:49:32;45.94;15.87
65637;DHT22;52327;42.622;23.316;2022-08-19T12:52:03;44.30;16.86
65637;DHT22;52327;42.622;23.316;2022-08-19T12:54:29;45.10;16.23
65637;DHT22;52327;42.622;23.316;2022-08-19T12:56:56;43.63;17.50
65637;DHT22;52327;42.622;23.316;2022-08-19T12:59:21;45.46;16.40
65637;DHT22;52327;42.622;23.316;2022-08-19T13:01:47;44.52;16.63
65637;DHT22;52327;42.622;23.316;2022-08-19T13:04:12;45.01;15.96
65637;DHT22;52327;42.622;23.316;2022-08-19T13:06:38;46.14;15.50
65637;DHT22;52327;42.622;23.316;2022-08-19T13:09:04;47.61;15.02
65637;DHT22;52327;42.622;23.316;2022-08-19T13:11:31;48.44;14.43
65637;DHT22;52327;42.622;23.316;2022-08-19T13:13:58;49.48;13.70
65637;DHT22;52327;42.622;23.316;2022-08-19T13:16:24;49.53;13.50
65637;DHT22;52327;42.622;23.316;2022-08-19T13:18:51;50.28;13.67
65637;DHT22;52327;42.622;23.316;2022-08-19T13:21:19;50.84;12.89
65637;DHT22;52327;42.622;23.316;2022-08-19T13:23:45;50.95;12.90
65637;DHT22;52327;42.622;23.316;2022-08-19T13:26:12;50.50;12.91
65637;DHT22;52327;42.622;23.316;2022-08-19T13:28:37;49.38;13.11
65637;DHT22;52327;42.622;23.316;2022-08-19T13:31:24;49.13;13.97
65637;DHT22;52327;42.622;23.316;2022-08-19T13:34:09;49.79;13.84
65637;DHT22;52327;42.622;23.316;2022-08-19T13:36:36;50.14;13.45
65637;DHT22;52327;42.622;23.316;2022-08-19T13:39:03;50.85;13.13
65637;DHT22;52327;42.622;23.316;2022-08-19T13:41:28;51.15;12.89
65637;DHT22;52327;42.622;23.316;2022-08-19T13:43:54;50.01;13.27
65637;DHT22;52327;42.622;23.316;2022-08-19T13:46:20;50.16;13.73
65637;DHT22;52327;42.622;23.316;2022-08-19T13:48:46;50.71;13.72
65637;DHT22;52327;42.622;23.316;2022-08-19T13:51:14;50.88;13.62
65637;DHT22;52327;42.622;23.316;2022-08-19T13:53:42;50.87;13.33
65637;DHT22;52327;42.622;23.316;2022-08-19T13:56:15;51.43;12.63
65637;DHT22;52327;42.622;23.316;2022-08-19T13:58:42;51.46;13.72
65637;DHT22;52327;42.622;23.316;2022-08-19T14:01:08;50.59;12.97
65637;DHT22;52327;42.622;23.316;2022-08-19T14:03:34;50.61;13.14
65637;DHT22;52327;42.622;23.316;2022-08-19T14:06:00;50.51;12.86
65637;DHT22;52327;42.622;23.316;2022-08-19T14:08:25;50.51;12.95
65637;DHT22;52327;42.622;23.316;2022-08-19T14:10:53;50.32;13.24
65637;DHT22;52327;42.622;23.316;2022-08-19T14:13:21;49.52;13.29
65637;DHT22;52327;42.622;23.316;2022-08-19T14:15:47;49.73;13.61
65637;DHT22;52327;42.622;23.316;2022-08-19T14:18:14;50.25;13.15
65637;DHT22;52327;42.622;23.316;2022-08-19T14:20:40;50.69;13.25
65637;DHT22;52327;42.622;23.316;2022-08-19T14:23:06;51.13;13.25
65637;DHT22;52327;42.622;23.316;2022-08-19T14:25:31;50.55;13.07
65637;DHT22;52327;42.622;23.316;2022-08-19T14:27:58;50.69;12.84
65637;DHT22;52327;42.622;23.316;2022-08-19T14:30:26;50.84;13.60
65637;DHT22;52327;42.622;23.316;2022-08-19T14:32:52;50.81;13.53
65637;DHT22;52327;42.622;23.316;2022-08-19T14:35:20;50.54;13.21
65637;DHT22;52327;42.622;23.316;2022-08-19T14:37:47;50.04;13.48
65637;DHT22;52327;42.622;23.316;2022-08-19T14:40:15;49.38;13.84
65637;DHT22;52327;42.622;23.316;2022-08-19T14:42:41;49.29;13.85
65637;DHT22;52327;42.622;23.316;2022-08-19T14:45:08;48.99;14.43
65637;DHT22;52327;42.622;23.316;2022-08-19T14:47:34;48.91;14.10
65637;DHT22;52327;42.622;23.316;2022-08-19T14:49:59;48.44;14.75
65637;DHT22;52327;42.622;23.316;2022-08-19T14:52:25;46.87;15.28
65637;DHT22;52327;42.622;23.316;2022-08-19T14:54:51;45.89;16.30
65637;DHT22;52327;42.622;23.316;2022-08-19T14:57:16;44.89;17.01
65637;DHT22;52327;42.622;23.316;2022-08-19T14:59:43;43.54;17.93
65637;DHT22;52327;42.622;23.316;2022-08-19T15:02:09;42.20;19.20
65637;DHT22;52327;42.622;23.316;2022-08-19T15:04:34;41.14;20.45
65637;DHT22;52327;42.622;23.316;2022-08-19T15:07:00;40.37;20.79
65637;DHT22;52327;42.622;23.316;2022-08-19T15:09:25;39.58;21.40
65637;DHT22;52327;42.622;23.316;2022-08-19T15:11:51;38.97;22.18
65637;DHT22;52327;42.622;23.316;2022-08-19T15:14:16;38.41;23.02
65637;DHT22;52327;42.622;23.316;2022-08-19T15:16:42;38.03;23.72
65637;DHT22;52327;42.622;23.316;2022-08-19T15:19:08;37.84;23.71
65637;DHT22;52327;42.622;23.316;2022-08-19T15:21:34;37.31;24.27
65637;DHT22;52327;42.622;23.316;2022-08-19T15:24:02;36.79;25.56
65637;DHT22;52327;42.622;23.316;2022-08-19T15:26:27;36.28;26.61
65637;DHT22;52327;42.622;23.316;2022-08-19T15:28:57;35.98;26.82